sensor_id;sensor_type;location;lat;lon;timestamp;P1;durP1;ratioP1;P2;durP2;ratioP2
25207;SDS011;13153;52.316;21.166;2023-02-01T00:00:19;16.15;;;10.27;;
25207;SDS011;13153;52.316;21.166;2023-02-01T00:02:45;13.45;;;9.40;;
25207;SDS011;13153;52.316;21.166;2023-02-01T00:05:11;15.25;;;9.52;;
25207;SDS011;13153;52.316;21.166;2023-02-01T00:07:37;13.98;;;9.25;;
25207;SDS011;13153;52.316;21.166;2023-02-01T00:10:03;11.02;;;8.13;;
25207;SDS011;13153;52.316;21.166;2023-02-01T00:12:31;15.02;;;8.98;;
25207;SDS011;13153;52.316;21.166;2023-02-01T00:14:57;12.68;;;8.43;;
25207;SDS011;13153;52.316;21.166;2023-02-01T00:17:23;13.88;;;9.20;;
25207;SDS011;13153;52.316;21.166;2023-02-01T00:19:49;11.57;;;8.38;;
25207;SDS011;13153;52.316;21.166;2023-02-01T00:22:15;14.13;;;8.43;;
25207;SDS011;13153;52.316;21.166;2023-02-01T00:24:41;14.57;;;8.93;;
25207;SDS011;13153;52.316;21.166;2023-02-01T00:27:07;13.35;;;9.20;;
25207;SDS011;13153;52.316;21.166;2023-02-01T00:29:33;14.95;;;9.65;;
25207;SDS011;13153;52.316;21.166;2023-02-01T00:31:59;14.18;;;10.23;;
25207;SDS011;13153;52.316;21.166;2023-02-01T00:34:24;16.33;;;11.15;;
25207;SDS011;13153;52.316;21.166;2023-02-01T00:36:51;15.48;;;9.90;;
25207;SDS011;13153;52.316;21.166;2023-02-01T00:39:17;15.95;;;9.80;;
25207;SDS011;13153;52.316;21.166;2023-02-01T00:41:43;13.60;;;9.25;;
25207;SDS011;13153;52.316;21.166;2023-02-01T00:44:08;13.20;;;9.55;;
25207;SDS011;13153;52.316;21.166;2023-02-01T00:46:34;13.82;;;8.02;;
25207;SDS011;13153;52.316;21.166;2023-02-01T00:49:01;10.57;;;6.97;;
25207;SDS011;13153;52.316;21.166;2023-02-01T00:51:27;10.80;;;6.80;;
25207;SDS011;13153;52.316;21.166;2023-02-01T00:53:54;11.27;;;6.75;;
25207;SDS011;13153;52.316;21.166;2023-02-01T00:56:21;11.55;;;6.05;;
25207;SDS011;13153;52.316;21.166;2023-02-01T00:58:47;9.85;;;5.78;;
25207;SDS011;13153;52.316;21.166;2023-02-01T01:01:14;9.90;;;5.90;;
25207;SDS011;13153;52.316;21.166;2023-02-01T01:03:48;8.45;;;5.72;;
25207;SDS011;13153;52.316;21.166;2023-02-01T01:06:24;8.98;;;5.30;;
25207;SDS011;13153;52.316;21.166;2023-02-01T01:08:54;6.97;;;4.53;;
25207;SDS011;13153;52.316;21.166;2023-02-01T01:11:23;10.00;;;5.25;;
25207;SDS011;13153;52.316;21.166;2023-02-01T01:13:52;6.95;;;4.00;;
25207;SDS011;13153;52.316;21.166;2023-02-01T01:16:21;6.05;;;3.80;;
25207;SDS011;13153;52.316;21.166;2023-02-01T01:18:49;10.52;;;4.00;;
25207;SDS011;13153;52.316;21.166;2023-02-01T01:21:15;6.13;;;3.40;;
25207;SDS011;13153;52.316;21.166;2023-02-01T01:23:43;7.20;;;3.17;;
25207;SDS011;13153;52.316;21.166;2023-02-01T01:26:18;10.82;;;3.53;;
25207;SDS011;13153;52.316;21.166;2023-02-01T01:28:51;6.22;;;2.88;;
25207;SDS011;13153;52.316;21.166;2023-02-01T01:31:19;10.02;;;3.20;;
25207;SDS011;13153;52.316;21.166;2023-02-01T01:33:49;8.48;;;3.08;;
25207;SDS011;13153;52.316;21.166;2023-02-01T01:36:17;7.28;;;3.00;;
25207;SDS011;13153;52.316;21.166;2023-02-01T01:38:44;8.32;;;2.80;;
25207;SDS011;13153;52.316;21.166;2023-02-01T01:41:29;9.93;;;3.38;;
25207;SDS011;13153;52.316;21.166;2023-02-01T01:46:30;9.27;;;3.10;;
25207;SDS011;13153;52.316;21.166;2023-02-01T01:49:16;9.10;;;2.95;;
25207;SDS011;13153;52.316;21.166;2023-02-01T01:51:50;10.07;;;2.78;;
25207;SDS011;13153;52.316;21.166;2023-02-01T01:54:28;7.97;;;2.20;;
25207;SDS011;13153;52.316;21.166;2023-02-01T01:57:01;7.13;;;2.42;;
25207;SDS011;13153;52.316;21.166;2023-02-01T01:59:37;9.00;;;2.50;;
25207;SDS011;13153;52.316;21.166;2023-02-01T02:02:07;7.57;;;2.50;;
25207;SDS011;13153;52.316;21.166;2023-02-01T02:04:33;10.07;;;2.58;;
25207;SDS011;13153;52.316;21.166;2023-02-01T02:07:04;9.18;;;2.70;;
25207;SDS011;13153;52.316;21.166;2023-02-01T02:09:37;9.45;;;2.47;;
25207;SDS011;13153;52.316;21.166;2023-02-01T02:12:04;7.88;;;2.92;;
25207;SDS011;13153;52.316;21.166;2023-02-01T02:14:30;8.48;;;2.70;;
25207;SDS011;13153;52.316;21.166;2023-02-01T02:16:59;9.95;;;2.80;;
25207;SDS011;13153;52.316;21.166;2023-02-01T02:43:35;13.95;;;3.47;;
25207;SDS011;13153;52.316;21.166;2023-02-01T02:46:56;15.38;;;3.80;;
25207;SDS011;13153;52.316;21.166;2023-02-01T02:52:44;9.60;;;3.60;;
25207;SDS011;13153;52.316;21.166;2023-02-01T02:55:40;10.02;;;3.10;;
25207;SDS011;13153;52.316;21.166;2023-02-01T02:58:08;11.35;;;3.55;;
25207;SDS011;13153;52.316;21.166;2023-02-01T03:00:55;11.15;;;3.22;;
25207;SDS011;13153;52.316;21.166;2023-02-01T03:03:40;12.48;;;3.55;;
25207;SDS011;13153;52.316;21.166;2023-02-01T03:06:33;15.02;;;3.42;;
25207;SDS011;13153;52.316;21.166;2023-02-01T03:09:00;15.32;;;4.07;;
25207;SDS011;13153;52.316;21.166;2023-02-01T03:11:33;13.75;;;3.80;;
25207;SDS011;13153;52.316;21.166;2023-02-01T03:14:20;9.90;;;3.40;;
25207;SDS011;13153;52.316;21.166;2023-02-01T03:16:51;8.23;;;3.60;;
25207;SDS011;13153;52.316;21.166;2023-02-01T03:19:35;14.00;;;3.67;;
25207;SDS011;13153;52.316;21.166;2023-02-01T03:22:12;13.38;;;3.70;;
25207;SDS011;13153;52.316;21.166;2023-02-01T03:24:46;11.88;;;3.83;;
25207;SDS011;13153;52.316;21.166;2023-02-01T03:27:27;11.32;;;3.33;;
25207;SDS011;13153;52.316;21.166;2023-02-01T03:30:28;17.35;;;3.88;;
25207;SDS011;13153;52.316;21.166;2023-02-01T03:33:00;16.58;;;4.28;;
25207;SDS011;13153;52.316;21.166;2023-02-01T03:35:59;14.30;;;3.85;;
25207;SDS011;13153;52.316;21.166;2023-02-01T03:41:27;11.98;;;3.30;;
25207;SDS011;13153;52.316;21.166;2023-02-01T03:49:33;11.95;;;3.33;;
25207;SDS011;13153;52.316;21.166;2023-02-01T03:52:05;15.80;;;3.47;;
25207;SDS011;13153;52.316;21.166;2023-02-01T03:54:40;15.75;;;3.47;;
25207;SDS011;13153;52.316;21.166;2023-02-01T03:57:10;15.32;;;3.47;;
25207;SDS011;13153;52.316;21.166;2023-02-01T03:59:42;13.80;;;3.53;;
25207;SDS011;13153;52.316;21.166;2023-02-01T04:02:10;12.07;;;3.42;;
25207;SDS011;13153;52.316;21.166;2023-02-01T04:04:36;12.02;;;4.03;;
25207;SDS011;13153;52.316;21.166;2023-02-01T04:07:03;16.45;;;3.97;;
25207;SDS011;13153;52.316;21.166;2023-02-01T04:09:29;20.50;;;4.30;;
25207;SDS011;13153;52.316;21.166;2023-02-01T04:11:55;21.98;;;4.47;;
25207;SDS011;13153;52.316;21.166;2023-02-01T04:14:20;13.75;;;3.97;;
25207;SDS011;13153;52.316;21.166;2023-02-01T04:16:46;20.35;;;4.45;;
25207;SDS011;13153;52.316;21.166;2023-02-01T04:19:12;14.13;;;4.00;;
25207;SDS011;13153;52.316;21.166;2023-02-01T04:21:38;16.45;;;3.70;;
25207;SDS011;13153;52.316;21.166;2023-02-01T04:24:04;17.88;;;4.07;;
25207;SDS011;13153;52.316;21.166;2023-02-01T04:26:30;17.33;;;3.55;;
25207;SDS011;13153;52.316;21.166;2023-02-01T04:28:56;12.18;;;3.67;;
25207;SDS011;13153;52.316;21.166;2023-02-01T04:31:21;13.57;;;4.00;;
25207;SDS011;13153;52.316;21.166;2023-02-01T04:33:51;15.45;;;4.22;;
25207;SDS011;13153;52.316;21.166;2023-02-01T04:36:18;14.30;;;4.07;;
25207;SDS011;13153;52.316;21.166;2023-02-01T04:38:51;22.80;;;4.47;;
25207;SDS011;13153;52.316;21.166;2023-02-01T04:41:17;14.13;;;3.65;;
25207;SDS011;13153;52.316;21.166;2023-02-01T04:43:45;19.73;;;4.00;;
25207;SDS011;13153;52.316;21.166;2023-02-01T04:46:11;19.40;;;4.32;;
25207;SDS011;13153;52.316;21.166;2023-02-01T04:48:38;11.80;;;3.42;;
25207;SDS011;13153;52.316;21.166;2023-02-01T04:51:04;17.60;;;4.05;;
25207;SDS011;13153;52.316;21.166;2023-02-01T04:53:30;16.20;;;4.22;;
25207;SDS011;13153;52.316;21.166;2023-02-01T04:55:56;15.95;;;3.70;;
25207;SDS011;13153;52.316;21.166;2023-02-01T04:58:21;16.60;;;3.78;;
25207;SDS011;13153;52.316;21.166;2023-02-01T05:00:47;18.95;;;4.57;;
25207;SDS011;13153;52.316;21.166;2023-02-01T05:03:13;19.33;;;4.95;;
25207;SDS011;13153;52.316;21.166;2023-02-01T05:05:39;19.80;;;4.22;;
25207;SDS011;13153;52.316;21.166;2023-02-01T05:08:05;15.63;;;3.95;;
25207;SDS011;13153;52.316;21.166;2023-02-01T05:10:30;17.80;;;4.20;;
25207;SDS011;13153;52.316;21.166;2023-02-01T05:12:56;19.35;;;4.07;;
25207;SDS011;13153;52.316;21.166;2023-02-01T05:15:41;16.33;;;3.70;;
25207;SDS011;13153;52.316;21.166;2023-02-01T05:18:06;20.67;;;4.57;;
25207;SDS011;13153;52.316;21.166;2023-02-01T05:20:32;14.90;;;4.10;;
25207;SDS011;13153;52.316;21.166;2023-02-01T05:22:58;15.73;;;3.60;;
25207;SDS011;13153;52.316;21.166;2023-02-01T05:25:24;18.05;;;4.32;;
25207;SDS011;13153;52.316;21.166;2023-02-01T05:27:49;17.65;;;4.15;;
25207;SDS011;13153;52.316;21.166;2023-02-01T05:30:15;12.88;;;4.00;;
25207;SDS011;13153;52.316;21.166;2023-02-01T05:32:41;18.17;;;4.07;;
25207;SDS011;13153;52.316;21.166;2023-02-01T05:35:07;18.10;;;4.05;;
25207;SDS011;13153;52.316;21.166;2023-02-01T05:37:33;15.07;;;3.92;;
25207;SDS011;13153;52.316;21.166;2023-02-01T05:39:59;12.13;;;3.58;;
25207;SDS011;13153;52.316;21.166;2023-02-01T05:42:25;17.88;;;4.22;;
25207;SDS011;13153;52.316;21.166;2023-02-01T05:44:51;21.95;;;3.80;;
25207;SDS011;13153;52.316;21.166;2023-02-01T05:47:17;17.13;;;4.68;;
25207;SDS011;13153;52.316;21.166;2023-02-01T05:49:42;18.05;;;4.45;;
25207;SDS011;13153;52.316;21.166;2023-02-01T05:52:08;26.20;;;4.55;;
25207;SDS011;13153;52.316;21.166;2023-02-01T05:54:34;20.02;;;4.10;;
25207;SDS011;13153;52.316;21.166;2023-02-01T05:57:00;17.92;;;4.50;;
25207;SDS011;13153;52.316;21.166;2023-02-01T05:59:25;18.25;;;4.85;;
25207;SDS011;13153;52.316;21.166;2023-02-01T06:01:51;24.73;;;4.70;;
25207;SDS011;13153;52.316;21.166;2023-02-01T06:04:17;22.02;;;4.32;;
25207;SDS011;13153;52.316;21.166;2023-02-01T06:06:43;20.50;;;4.57;;
25207;SDS011;13153;52.316;21.166;2023-02-01T06:09:09;19.40;;;4.30;;
25207;SDS011;13153;52.316;21.166;2023-02-01T06:11:34;18.35;;;3.90;;
25207;SDS011;13153;52.316;21.166;2023-02-01T06:14:00;21.67;;;4.05;;
25207;SDS011;13153;52.316;21.166;2023-02-01T06:16:26;17.27;;;4.20;;
25207;SDS011;13153;52.316;21.166;2023-02-01T06:18:52;21.23;;;4.40;;
25207;SDS011;13153;52.316;21.166;2023-02-01T06:21:18;15.65;;;4.10;;
25207;SDS011;13153;52.316;21.166;2023-02-01T06:23:51;21.73;;;4.30;;
25207;SDS011;13153;52.316;21.166;2023-02-01T06:26:19;16.95;;;4.93;;
25207;SDS011;13153;52.316;21.166;2023-02-01T06:28:45;21.25;;;4.45;;
25207;SDS011;13153;52.316;21.166;2023-02-01T06:31:11;17.60;;;4.03;;
25207;SDS011;13153;52.316;21.166;2023-02-01T06:33:37;18.55;;;4.65;;
25207;SDS011;13153;52.316;21.166;2023-02-01T06:36:04;16.25;;;3.95;;
25207;SDS011;13153;52.316;21.166;2023-02-01T06:38:33;17.33;;;3.97;;
25207;SDS011;13153;52.316;21.166;2023-02-01T06:41:00;20.77;;;4.70;;
25207;SDS011;13153;52.316;21.166;2023-02-01T06:43:27;17.90;;;4.22;;
25207;SDS011;13153;52.316;21.166;2023-02-01T06:45:58;19.52;;;4.75;;
25207;SDS011;13153;52.316;21.166;2023-02-01T06:48:34;20.40;;;5.25;;
25207;SDS011;13153;52.316;21.166;2023-02-01T06:51:00;21.48;;;5.30;;
25207;SDS011;13153;52.316;21.166;2023-02-01T06:53:26;23.83;;;4.80;;
25207;SDS011;13153;52.316;21.166;2023-02-01T06:58:21;22.35;;;4.35;;
25207;SDS011;13153;52.316;21.166;2023-02-01T07:00:47;26.63;;;5.82;;
25207;SDS011;13153;52.316;21.166;2023-02-01T07:03:13;20.35;;;4.30;;
25207;SDS011;13153;52.316;21.166;2023-02-01T07:05:39;19.35;;;4.63;;
25207;SDS011;13153;52.316;21.166;2023-02-01T07:08:05;19.00;;;4.82;;
25207;SDS011;13153;52.316;21.166;2023-02-01T07:10:31;21.95;;;4.05;;
25207;SDS011;13153;52.316;21.166;2023-02-01T07:12:57;25.02;;;5.00;;
25207;SDS011;13153;52.316;21.166;2023-02-01T07:15:23;19.40;;;4.57;;
25207;SDS011;13153;52.316;21.166;2023-02-01T07:17:49;21.40;;;5.57;;
25207;SDS011;13153;52.316;21.166;2023-02-01T07:20:15;18.10;;;4.60;;
25207;SDS011;13153;52.316;21.166;2023-02-01T07:22:41;23.77;;;5.60;;
25207;SDS011;13153;52.316;21.166;2023-02-01T07:25:07;21.40;;;4.60;;
25207;SDS011;13153;52.316;21.166;2023-02-01T07:27:34;19.80;;;5.35;;
25207;SDS011;13153;52.316;21.166;2023-02-01T07:30:00;18.27;;;4.80;;
25207;SDS011;13153;52.316;21.166;2023-02-01T07:32:27;26.40;;;5.07;;
25207;SDS011;13153;52.316;21.166;2023-02-01T07:34:54;19.50;;;4.43;;
25207;SDS011;13153;52.316;21.166;2023-02-01T07:37:19;24.73;;;5.15;;
25207;SDS011;13153;52.316;21.166;2023-02-01T07:39:45;21.63;;;4.70;;
25207;SDS011;13153;52.316;21.166;2023-02-01T07:42:11;20.25;;;4.70;;
25207;SDS011;13153;52.316;21.166;2023-02-01T07:44:37;19.92;;;5.40;;
25207;SDS011;13153;52.316;21.166;2023-02-01T07:47:03;24.00;;;5.22;;
25207;SDS011;13153;52.316;21.166;2023-02-01T07:49:29;24.75;;;4.65;;
25207;SDS011;13153;52.316;21.166;2023-02-01T07:51:55;19.52;;;4.38;;
25207;SDS011;13153;52.316;21.166;2023-02-01T07:54:20;16.50;;;4.95;;
25207;SDS011;13153;52.316;21.166;2023-02-01T07:56:46;18.08;;;5.05;;
25207;SDS011;13153;52.316;21.166;2023-02-01T07:59:12;22.05;;;5.63;;
25207;SDS011;13153;52.316;21.166;2023-02-01T08:01:38;19.17;;;4.90;;
25207;SDS011;13153;52.316;21.166;2023-02-01T08:04:04;22.13;;;5.10;;
25207;SDS011;13153;52.316;21.166;2023-02-01T08:06:31;20.90;;;5.25;;
25207;SDS011;13153;52.316;21.166;2023-02-01T08:09:01;27.52;;;5.95;;
25207;SDS011;13153;52.316;21.166;2023-02-01T08:11:29;23.65;;;6.00;;
25207;SDS011;13153;52.316;21.166;2023-02-01T08:13:56;33.28;;;10.20;;
25207;SDS011;13153;52.316;21.166;2023-02-01T08:16:23;31.67;;;7.10;;
25207;SDS011;13153;52.316;21.166;2023-02-01T08:18:50;25.38;;;6.30;;
25207;SDS011;13153;52.316;21.166;2023-02-01T08:21:27;20.88;;;5.30;;
25207;SDS011;13153;52.316;21.166;2023-02-01T08:24:05;23.52;;;6.25;;
25207;SDS011;13153;52.316;21.166;2023-02-01T08:26:33;26.67;;;7.32;;
25207;SDS011;13153;52.316;21.166;2023-02-01T08:29:00;20.73;;;5.20;;
25207;SDS011;13153;52.316;21.166;2023-02-01T08:31:28;23.88;;;5.60;;
25207;SDS011;13153;52.316;21.166;2023-02-01T08:33:56;21.95;;;5.38;;
25207;SDS011;13153;52.316;21.166;2023-02-01T08:36:27;25.05;;;5.55;;
25207;SDS011;13153;52.316;21.166;2023-02-01T08:38:55;22.25;;;6.05;;
25207;SDS011;13153;52.316;21.166;2023-02-01T08:41:23;21.30;;;5.82;;
25207;SDS011;13153;52.316;21.166;2023-02-01T08:43:54;27.92;;;6.00;;
25207;SDS011;13153;52.316;21.166;2023-02-01T08:46:21;24.98;;;5.88;;
25207;SDS011;13153;52.316;21.166;2023-02-01T08:48:48;22.65;;;5.30;;
25207;SDS011;13153;52.316;21.166;2023-02-01T08:51:15;23.00;;;5.07;;
25207;SDS011;13153;52.316;21.166;2023-02-01T08:53:44;18.95;;;5.47;;
25207;SDS011;13153;52.316;21.166;2023-02-01T08:56:11;23.13;;;5.13;;
25207;SDS011;13153;52.316;21.166;2023-02-01T08:58:39;21.98;;;5.55;;
25207;SDS011;13153;52.316;21.166;2023-02-01T09:01:09;28.80;;;5.88;;
25207;SDS011;13153;52.316;21.166;2023-02-01T09:03:38;22.27;;;5.00;;
25207;SDS011;13153;52.316;21.166;2023-02-01T09:06:09;16.35;;;4.65;;
25207;SDS011;13153;52.316;21.166;2023-02-01T09:08:38;15.05;;;5.10;;
25207;SDS011;13153;52.316;21.166;2023-02-01T09:11:06;21.30;;;5.45;;
25207;SDS011;13153;52.316;21.166;2023-02-01T09:13:36;19.67;;;5.22;;
25207;SDS011;13153;52.316;21.166;2023-02-01T09:16:03;20.80;;;5.65;;
25207;SDS011;13153;52.316;21.166;2023-02-01T09:18:29;19.90;;;5.40;;
25207;SDS011;13153;52.316;21.166;2023-02-01T09:20:55;23.02;;;5.40;;
25207;SDS011;13153;52.316;21.166;2023-02-01T09:23:21;22.73;;;5.88;;
25207;SDS011;13153;52.316;21.166;2023-02-01T09:25:47;22.35;;;6.10;;
25207;SDS011;13153;52.316;21.166;2023-02-01T09:28:16;19.55;;;5.20;;
25207;SDS011;13153;52.316;21.166;2023-02-01T09:30:43;28.35;;;6.72;;
25207;SDS011;13153;52.316;21.166;2023-02-01T09:33:09;25.95;;;6.15;;
25207;SDS011;13153;52.316;21.166;2023-02-01T09:35:35;19.58;;;5.15;;
25207;SDS011;13153;52.316;21.166;2023-02-01T09:38:01;27.05;;;6.00;;
25207;SDS011;13153;52.316;21.166;2023-02-01T09:40:26;19.50;;;5.72;;
25207;SDS011;13153;52.316;21.166;2023-02-01T09:48:45;23.75;;;5.28;;
25207;SDS011;13153;52.316;21.166;2023-02-01T09:51:14;23.67;;;5.32;;
25207;SDS011;13153;52.316;21.166;2023-02-01T09:53:50;22.98;;;5.57;;
25207;SDS011;13153;52.316;21.166;2023-02-01T09:57:37;28.63;;;5.68;;
25207;SDS011;13153;52.316;21.166;2023-02-01T10:02:16;24.30;;;5.43;;
25207;SDS011;13153;52.316;21.166;2023-02-01T10:04:52;22.83;;;5.38;;
25207;SDS011;13153;52.316;21.166;2023-02-01T10:07:35;20.83;;;4.78;;
25207;SDS011;13153;52.316;21.166;2023-02-01T10:10:50;15.80;;;5.00;;
25207;SDS011;13153;52.316;21.166;2023-02-01T10:13:17;16.25;;;5.47;;
25207;SDS011;13153;52.316;21.166;2023-02-01T10:16:25;29.63;;;5.85;;
25207;SDS011;13153;52.316;21.166;2023-02-01T10:19:43;24.02;;;5.32;;
25207;SDS011;13153;52.316;21.166;2023-02-01T10:22:38;22.42;;;5.97;;
25207;SDS011;13153;52.316;21.166;2023-02-01T10:27:49;23.45;;;6.05;;
25207;SDS011;13153;52.316;21.166;2023-02-01T10:32:56;22.30;;;5.78;;
25207;SDS011;13153;52.316;21.166;2023-02-01T10:35:39;28.15;;;6.60;;
25207;SDS011;13153;52.316;21.166;2023-02-01T10:38:09;26.05;;;6.65;;
25207;SDS011;13153;52.316;21.166;2023-02-01T10:40:49;20.77;;;5.68;;
25207;SDS011;13153;52.316;21.166;2023-02-01T10:43:20;22.42;;;7.03;;
25207;SDS011;13153;52.316;21.166;2023-02-01T10:45:46;23.77;;;7.32;;
25207;SDS011;13153;52.316;21.166;2023-02-01T10:48:12;28.30;;;7.38;;
25207;SDS011;13153;52.316;21.166;2023-02-01T10:50:41;26.17;;;7.05;;
25207;SDS011;13153;52.316;21.166;2023-02-01T10:56:12;30.25;;;5.80;;
25207;SDS011;13153;52.316;21.166;2023-02-01T10:58:45;22.98;;;6.43;;
25207;SDS011;13153;52.316;21.166;2023-02-01T11:01:23;22.88;;;6.55;;
25207;SDS011;13153;52.316;21.166;2023-02-01T11:06:51;26.88;;;6.60;;
25207;SDS011;13153;52.316;21.166;2023-02-01T11:09:32;19.42;;;6.00;;
25207;SDS011;13153;52.316;21.166;2023-02-01T11:12:05;24.10;;;7.10;;
25207;SDS011;13153;52.316;21.166;2023-02-01T11:14:54;20.95;;;5.53;;
25207;SDS011;13153;52.316;21.166;2023-02-01T11:17:45;22.20;;;6.28;;
25207;SDS011;13153;52.316;21.166;2023-02-01T11:20:21;26.20;;;6.38;;
25207;SDS011;13153;52.316;21.166;2023-02-01T11:23:05;28.50;;;6.57;;
25207;SDS011;13153;52.316;21.166;2023-02-01T11:25:39;27.70;;;6.22;;
25207;SDS011;13153;52.316;21.166;2023-02-01T11:28:26;31.13;;;7.03;;
25207;SDS011;13153;52.316;21.166;2023-02-01T11:31:06;26.10;;;6.22;;
25207;SDS011;13153;52.316;21.166;2023-02-01T11:33:37;29.42;;;7.40;;
25207;SDS011;13153;52.316;21.166;2023-02-01T11:36:18;28.00;;;7.13;;
25207;SDS011;13153;52.316;21.166;2023-02-01T11:39:07;31.40;;;6.38;;
25207;SDS011;13153;52.316;21.166;2023-02-01T11:41:58;27.33;;;6.00;;
25207;SDS011;13153;52.316;21.166;2023-02-01T11:44:37;26.58;;;5.78;;
25207;SDS011;13153;52.316;21.166;2023-02-01T11:50:00;26.05;;;5.63;;
25207;SDS011;13153;52.316;21.166;2023-02-01T12:01:43;26.80;;;6.45;;
25207;SDS011;13153;52.316;21.166;2023-02-01T12:21:22;18.67;;;5.18;;
25207;SDS011;13153;52.316;21.166;2023-02-01T12:24:07;21.73;;;5.93;;
25207;SDS011;13153;52.316;21.166;2023-02-01T12:36:19;19.33;;;5.35;;
25207;SDS011;13153;52.316;21.166;2023-02-01T12:47:22;36.60;;;7.70;;
25207;SDS011;13153;52.316;21.166;2023-02-01T12:50:18;20.80;;;6.63;;
25207;SDS011;13153;52.316;21.166;2023-02-01T12:53:15;22.42;;;7.32;;
25207;SDS011;13153;52.316;21.166;2023-02-01T12:56:14;23.63;;;6.93;;
25207;SDS011;13153;52.316;21.166;2023-02-01T12:58:53;26.33;;;6.90;;
25207;SDS011;13153;52.316;21.166;2023-02-01T13:01:30;23.95;;;6.15;;
25207;SDS011;13153;52.316;21.166;2023-02-01T13:07:59;26.45;;;6.22;;
25207;SDS011;13153;52.316;21.166;2023-02-01T13:13:32;21.05;;;5.88;;
25207;SDS011;13153;52.316;21.166;2023-02-01T13:16:31;23.13;;;6.45;;
25207;SDS011;13153;52.316;21.166;2023-02-01T13:22:44;24.27;;;6.40;;
25207;SDS011;13153;52.316;21.166;2023-02-01T13:25:36;42.88;;;15.40;;
25207;SDS011;13153;52.316;21.166;2023-02-01T13:28:21;27.08;;;6.93;;
25207;SDS011;13153;52.316;21.166;2023-02-01T13:45:02;19.15;;;5.57;;
25207;SDS011;13153;52.316;21.166;2023-02-01T13:47:43;22.17;;;5.55;;
25207;SDS011;13153;52.316;21.166;2023-02-01T13:52:55;25.67;;;4.93;;
25207;SDS011;13153;52.316;21.166;2023-02-01T13:55:26;18.13;;;4.85;;
25207;SDS011;13153;52.316;21.166;2023-02-01T13:58:00;13.82;;;4.57;;
25207;SDS011;13153;52.316;21.166;2023-02-01T14:00:43;19.48;;;4.63;;
25207;SDS011;13153;52.316;21.166;2023-02-01T14:03:11;15.63;;;4.95;;
25207;SDS011;13153;52.316;21.166;2023-02-01T14:08:13;20.00;;;6.10;;
25207;SDS011;13153;52.316;21.166;2023-02-01T14:10:52;16.33;;;4.63;;
25207;SDS011;13153;52.316;21.166;2023-02-01T14:13:38;15.93;;;5.07;;
25207;SDS011;13153;52.316;21.166;2023-02-01T14:23:55;18.45;;;5.13;;
25207;SDS011;13153;52.316;21.166;2023-02-01T14:26:43;17.48;;;5.03;;
25207;SDS011;13153;52.316;21.166;2023-02-01T14:47:48;15.35;;;5.10;;
25207;SDS011;13153;52.316;21.166;2023-02-01T14:50:41;18.70;;;6.10;;
25207;SDS011;13153;52.316;21.166;2023-02-01T14:53:18;15.63;;;6.22;;
25207;SDS011;13153;52.316;21.166;2023-02-01T15:01:04;18.10;;;5.95;;
25207;SDS011;13153;52.316;21.166;2023-02-01T15:12:15;15.75;;;5.50;;
25207;SDS011;13153;52.316;21.166;2023-02-01T15:15:31;14.60;;;5.28;;
25207;SDS011;13153;52.316;21.166;2023-02-01T15:17:49;13.85;;;4.90;;
25207;SDS011;13153;52.316;21.166;2023-02-01T15:25:36;13.38;;;5.20;;
25207;SDS011;13153;52.316;21.166;2023-02-01T15:28:04;10.77;;;4.63;;
25207;SDS011;13153;52.316;21.166;2023-02-01T15:30:34;14.60;;;4.40;;
25207;SDS011;13153;52.316;21.166;2023-02-01T15:38:18;11.30;;;5.15;;
25207;SDS011;13153;52.316;21.166;2023-02-01T15:43:30;13.18;;;4.95;;
25207;SDS011;13153;52.316;21.166;2023-02-01T15:46:18;13.00;;;5.07;;
25207;SDS011;13153;52.316;21.166;2023-02-01T15:48:54;11.35;;;4.90;;
25207;SDS011;13153;52.316;21.166;2023-02-01T15:51:22;12.02;;;4.80;;
25207;SDS011;13153;52.316;21.166;2023-02-01T15:53:58;12.48;;;4.47;;
25207;SDS011;13153;52.316;21.166;2023-02-01T15:56:33;10.02;;;4.50;;
25207;SDS011;13153;52.316;21.166;2023-02-01T15:59:02;12.35;;;5.18;;
25207;SDS011;13153;52.316;21.166;2023-02-01T16:01:40;14.13;;;5.30;;
25207;SDS011;13153;52.316;21.166;2023-02-01T16:04:25;12.65;;;5.80;;
25207;SDS011;13153;52.316;21.166;2023-02-01T16:06:56;13.25;;;5.65;;
25207;SDS011;13153;52.316;21.166;2023-02-01T16:09:40;11.35;;;4.95;;
25207;SDS011;13153;52.316;21.166;2023-02-01T16:12:22;12.60;;;5.22;;
25207;SDS011;13153;52.316;21.166;2023-02-01T16:14:57;15.85;;;5.47;;
25207;SDS011;13153;52.316;21.166;2023-02-01T16:17:23;10.90;;;5.22;;
25207;SDS011;13153;52.316;21.166;2023-02-01T16:19:48;16.25;;;7.88;;
25207;SDS011;13153;52.316;21.166;2023-02-01T16:22:15;11.57;;;5.22;;
25207;SDS011;13153;52.316;21.166;2023-02-01T16:24:41;11.20;;;4.97;;
25207;SDS011;13153;52.316;21.166;2023-02-01T16:27:07;13.77;;;5.95;;
25207;SDS011;13153;52.316;21.166;2023-02-01T16:29:32;15.02;;;6.78;;
25207;SDS011;13153;52.316;21.166;2023-02-01T16:31:59;14.95;;;7.45;;
25207;SDS011;13153;52.316;21.166;2023-02-01T16:34:25;18.38;;;7.63;;
25207;SDS011;13153;52.316;21.166;2023-02-01T16:36:51;17.08;;;7.88;;
25207;SDS011;13153;52.316;21.166;2023-02-01T16:39:19;16.77;;;7.70;;
25207;SDS011;13153;52.316;21.166;2023-02-01T16:41:45;16.23;;;8.48;;
25207;SDS011;13153;52.316;21.166;2023-02-01T16:44:11;16.30;;;7.50;;
25207;SDS011;13153;52.316;21.166;2023-02-01T16:46:40;19.50;;;8.05;;
25207;SDS011;13153;52.316;21.166;2023-02-01T16:49:18;17.70;;;9.63;;
25207;SDS011;13153;52.316;21.166;2023-02-01T16:51:50;15.75;;;6.97;;
25207;SDS011;13153;52.316;21.166;2023-02-01T16:54:21;14.23;;;7.40;;
25207;SDS011;13153;52.316;21.166;2023-02-01T16:56:47;19.45;;;8.00;;
25207;SDS011;13153;52.316;21.166;2023-02-01T16:59:13;16.42;;;7.90;;
25207;SDS011;13153;52.316;21.166;2023-02-01T17:01:39;32.60;;;13.98;;
25207;SDS011;13153;52.316;21.166;2023-02-01T17:04:07;18.17;;;8.63;;
25207;SDS011;13153;52.316;21.166;2023-02-01T17:06:35;14.05;;;7.65;;
25207;SDS011;13153;52.316;21.166;2023-02-01T17:09:03;17.85;;;7.55;;
25207;SDS011;13153;52.316;21.166;2023-02-01T17:11:29;20.40;;;8.30;;
25207;SDS011;13153;52.316;21.166;2023-02-01T17:13:56;21.75;;;8.40;;
25207;SDS011;13153;52.316;21.166;2023-02-01T17:16:38;21.05;;;8.23;;
25207;SDS011;13153;52.316;21.166;2023-02-01T17:19:06;21.70;;;7.40;;
25207;SDS011;13153;52.316;21.166;2023-02-01T17:21:47;22.55;;;9.07;;
25207;SDS011;13153;52.316;21.166;2023-02-01T17:24:20;25.00;;;8.57;;
25207;SDS011;13153;52.316;21.166;2023-02-01T17:26:50;21.92;;;8.63;;
25207;SDS011;13153;52.316;21.166;2023-02-01T17:29:16;21.65;;;9.05;;
25207;SDS011;13153;52.316;21.166;2023-02-01T17:31:43;23.35;;;9.07;;
25207;SDS011;13153;52.316;21.166;2023-02-01T17:34:14;17.58;;;8.30;;
25207;SDS011;13153;52.316;21.166;2023-02-01T17:36:41;21.42;;;9.30;;
25207;SDS011;13153;52.316;21.166;2023-02-01T17:39:08;19.02;;;7.93;;
25207;SDS011;13153;52.316;21.166;2023-02-01T17:41:35;19.63;;;7.50;;
25207;SDS011;13153;52.316;21.166;2023-02-01T17:44:02;22.33;;;10.02;;
25207;SDS011;13153;52.316;21.166;2023-02-01T17:46:29;17.27;;;7.30;;
25207;SDS011;13153;52.316;21.166;2023-02-01T17:48:56;19.45;;;7.78;;
25207;SDS011;13153;52.316;21.166;2023-02-01T17:51:25;16.42;;;7.43;;
25207;SDS011;13153;52.316;21.166;2023-02-01T17:53:53;17.15;;;7.53;;
25207;SDS011;13153;52.316;21.166;2023-02-01T17:56:21;23.02;;;8.07;;
25207;SDS011;13153;52.316;21.166;2023-02-01T17:58:49;17.00;;;7.65;;